createdAt,value
2022-08-02T00:01:06.259Z,4.33
2022-08-02T00:02:17.970Z,3.70
2022-08-02T00:03:29.479Z,3.90
2022-08-02T00:04:42.314Z,4.00
2022-08-02T00:05:54.051Z,3.50
2022-08-02T00:07:05.686Z,3.17
2022-08-02T00:08:17.235Z,3.47
2022-08-02T00:09:28.862Z,3.93
2022-08-02T00:10:40.633Z,3.77
2022-08-02T00:11:52.134Z,4.00
2022-08-02T00:13:03.787Z,3.60
2022-08-02T00:14:15.286Z,4.07
2022-08-02T00:15:27.234Z,3.60
2022-08-02T00:16:38.928Z,3.50
2022-08-02T00:17:50.472Z,3.67
2022-08-02T00:19:01.959Z,3.87
2022-08-02T00:20:13.511Z,3.83
2022-08-02T00:21:25.026Z,4.50
2022-08-02T00:22:36.544Z,3.70
2022-08-02T00:24:27.946Z,3.80
2022-08-02T00:25:19.604Z,4.47
2022-08-02T00:26:31.183Z,4.13
2022-08-02T00:27:42.720Z,4.07
2022-08-02T00:28:54.325Z,3.47
2022-08-02T00:30:06.345Z,3.83
2022-08-02T00:31:17.954Z,3.57
2022-08-02T00:32:29.464Z,4.20
2022-08-02T00:34:26.390Z,4.33
2022-08-02T00:35:12.578Z,3.90
2022-08-02T00:36:24.113Z,3.77
2022-08-02T00:37:38.445Z,3.60
2022-08-02T00:38:50.963Z,3.60
2022-08-02T00:40:03.355Z,3.53
2022-08-02T00:41:16.791Z,4.20
2022-08-02T00:42:28.270Z,3.40
2022-08-02T00:43:39.915Z,3.97
2022-08-02T00:44:52.819Z,3.60
2022-08-02T00:46:04.315Z,4.17
2022-08-02T00:47:19.543Z,3.77
2022-08-02T00:48:31.460Z,4.20
2022-08-02T00:49:43.857Z,4.13
2022-08-02T00:50:58.500Z,4.07
2022-08-02T00:52:10.269Z,3.87
2022-08-02T00:53:22.141Z,4.33
2022-08-02T00:54:33.723Z,4.27
2022-08-02T00:55:45.306Z,3.87
2022-08-02T00:56:57.027Z,3.93
2022-08-02T00:58:08.587Z,4.03
2022-08-02T00:59:20.098Z,3.40
2022-08-02T01:00:31.684Z,3.70
2022-08-02T01:01:56.366Z,3.80
2022-08-02T01:03:09.258Z,4.07
2022-08-02T01:04:29.933Z,4.50
2022-08-02T01:05:55.829Z,3.73
2022-08-02T01:07:14.638Z,4.17
2022-08-02T01:08:29.586Z,3.90
2022-08-02T01:09:44.270Z,4.07
2022-08-02T01:10:55.796Z,3.77
2022-08-02T01:12:07.672Z,3.63
2022-08-02T01:13:19.267Z,4.00
2022-08-02T01:14:30.809Z,4.07
2022-08-02T01:15:45.857Z,4.00
2022-08-02T01:17:02.945Z,4.17
2022-08-02T01:18:27.503Z,3.97
2022-08-02T01:20:02.405Z,3.93
2022-08-02T01:21:32.680Z,4.00
2022-08-02T01:23:01.114Z,4.10
2022-08-02T01:24:13.708Z,4.27
2022-08-02T01:25:31.121Z,4.30
2022-08-02T01:26:47.069Z,4.00
2022-08-02T01:28:17.447Z,3.90
2022-08-02T01:29:30.733Z,3.90
2022-08-02T01:30:43.474Z,4.10
2022-08-02T01:31:57.703Z,4.10
2022-08-02T01:33:12.051Z,4.10
2022-08-02T01:34:33.107Z,3.97
2022-08-02T01:35:47.157Z,3.67
2022-08-02T01:37:07.660Z,4.00
2022-08-02T01:38:23.960Z,4.13
2022-08-02T01:39:36.478Z,3.83
2022-08-02T01:40:49.419Z,4.43
2022-08-02T01:42:02.203Z,4.87
2022-08-02T01:43:14.739Z,4.83
2022-08-02T01:44:27.154Z,3.97
2022-08-02T01:45:41.073Z,4.20
2022-08-02T01:46:53.247Z,4.23
2022-08-02T01:48:05.805Z,4.17
2022-08-02T01:49:20.307Z,4.13
2022-08-02T01:50:33.953Z,4.80
2022-08-02T01:52:05.640Z,4.07
2022-08-02T01:53:18.868Z,4.40
2022-08-02T01:54:31.297Z,4.13
2022-08-02T01:55:57.524Z,3.97
2022-08-02T01:57:10.956Z,4.67
2022-08-02T01:58:25.073Z,4.60
2022-08-02T01:59:36.849Z,4.20
2022-08-02T02:00:49.255Z,4.20
2022-08-02T02:02:01.697Z,5.00
2022-08-02T02:03:14.889Z,4.00
2022-08-02T02:04:28.002Z,4.43
2022-08-02T02:05:39.769Z,5.50
2022-08-02T02:06:51.741Z,4.17
2022-08-02T02:08:04.495Z,3.90
2022-08-02T02:09:16.415Z,4.33
2022-08-02T02:10:29.951Z,3.90
2022-08-02T02:12:06.214Z,4.43
2022-08-02T02:13:18.626Z,4.03
2022-08-02T02:14:31.087Z,4.33
2022-08-02T02:15:47.441Z,4.20
2022-08-02T02:17:00.274Z,3.57
2022-08-02T02:18:14.745Z,4.17
2022-08-02T02:19:26.669Z,4.20
2022-08-02T02:20:38.421Z,4.13
2022-08-02T02:21:50.009Z,4.50
2022-08-02T02:23:03.145Z,4.20
2022-08-02T02:24:15.654Z,4.20
2022-08-02T02:25:35.574Z,4.13
2022-08-02T02:26:52.498Z,4.53
2022-08-02T02:28:06.305Z,3.90
2022-08-02T02:29:18.834Z,4.23
2022-08-02T02:30:31.336Z,4.47
2022-08-02T02:31:44.223Z,4.50
2022-08-02T02:32:57.730Z,4.10
2022-08-02T02:34:11.049Z,4.83
2022-08-02T02:35:23.209Z,3.80
2022-08-02T02:36:35.284Z,4.33
2022-08-02T02:37:48.346Z,4.33
2022-08-02T02:39:02.155Z,4.27
2022-08-02T02:40:15.246Z,4.10
2022-08-02T02:41:27.159Z,4.10
2022-08-02T02:42:41.739Z,4.80
2022-08-02T02:44:02.908Z,4.03
2022-08-02T02:45:15.415Z,4.10
2022-08-02T02:46:27.354Z,3.97
2022-08-02T02:47:41.480Z,4.10
2022-08-02T02:48:53.436Z,5.00
2022-08-02T02:50:05.331Z,4.53
2022-08-02T02:51:16.951Z,4.60
2022-08-02T02:52:28.664Z,4.30
2022-08-02T02:54:33.739Z,5.30
2022-08-02T02:55:12.948Z,5.20
2022-08-02T02:56:24.702Z,4.87
2022-08-02T02:57:37.241Z,5.17
2022-08-02T02:58:48.723Z,5.40
2022-08-02T03:00:00.251Z,4.50
2022-08-02T03:01:55.562Z,5.00
2022-08-02T03:03:02.883Z,4.97
2022-08-02T03:04:14.484Z,4.67
2022-08-02T03:05:26.023Z,4.87
2022-08-02T03:06:38.122Z,4.73
2022-08-02T03:07:49.642Z,4.47
2022-08-02T03:09:01.130Z,4.40
2022-08-02T03:10:12.634Z,5.27
2022-08-02T03:11:24.747Z,4.83
2022-08-02T03:12:37.018Z,4.13
2022-08-02T03:13:48.607Z,4.70
2022-08-02T03:15:01.186Z,4.90
2022-08-02T03:16:13.042Z,5.17
2022-08-02T03:17:24.609Z,5.13
2022-08-02T03:18:37.144Z,4.97
2022-08-02T03:19:48.637Z,4.30
2022-08-02T03:21:04.567Z,4.77
2022-08-02T03:22:16.127Z,4.87
2022-08-02T03:23:27.642Z,4.43
2022-08-02T03:24:39.291Z,4.70
2022-08-02T03:25:50.775Z,4.70
2022-08-02T03:27:02.390Z,4.57
2022-08-02T03:28:13.883Z,5.03
2022-08-02T03:29:25.416Z,5.00
2022-08-02T03:30:36.961Z,4.80
2022-08-02T03:31:48.499Z,5.40
2022-08-02T03:32:59.977Z,4.57
2022-08-02T03:34:11.550Z,4.47
2022-08-02T03:35:24.359Z,4.33
2022-08-02T03:36:36.496Z,5.93
2022-08-02T03:37:48.618Z,4.53
2022-08-02T03:39:00.723Z,4.73
2022-08-02T03:40:13.358Z,5.27
2022-08-02T03:41:25.174Z,5.37
2022-08-02T03:42:36.867Z,5.00
2022-08-02T03:43:49.175Z,6.03
2022-08-02T03:45:07.731Z,4.93
2022-08-02T03:46:20.845Z,4.87
2022-08-02T03:47:33.061Z,5.47
2022-08-02T03:48:44.726Z,5.23
2022-08-02T03:49:56.514Z,5.30
2022-08-02T03:51:08.144Z,5.33
2022-08-02T03:52:19.665Z,4.70
2022-08-02T03:53:31.543Z,4.80
2022-08-02T03:54:45.437Z,5.53
2022-08-02T03:55:57.743Z,5.53
2022-08-02T03:57:10.102Z,4.83
2022-08-02T03:58:22.623Z,4.97
2022-08-02T03:59:42.000Z,5.17
2022-08-02T04:00:54.890Z,5.60
2022-08-02T04:02:06.412Z,4.93
2022-08-02T04:03:20.155Z,4.93
2022-08-02T04:04:31.747Z,4.70
2022-08-02T04:06:00.996Z,4.83
2022-08-02T04:07:14.996Z,4.70
2022-08-02T04:08:46.474Z,5.20
2022-08-02T04:09:57.975Z,5.40
2022-08-02T04:11:28.075Z,5.33
2022-08-02T04:12:39.562Z,5.20
2022-08-02T04:13:51.210Z,4.77
2022-08-02T04:15:03.473Z,5.43
2022-08-02T04:16:31.135Z,4.83
2022-08-02T04:17:47.970Z,4.93
2022-08-02T04:19:01.329Z,4.67
2022-08-02T04:20:14.948Z,4.60
2022-08-02T04:21:41.454Z,5.10
2022-08-02T04:23:04.227Z,5.10
2022-08-02T04:24:18.802Z,5.07
2022-08-02T04:25:38.275Z,5.23
2022-08-02T04:26:54.950Z,5.57
2022-08-02T04:28:17.285Z,4.50
2022-08-02T04:29:30.674Z,4.80
2022-08-02T04:30:42.211Z,5.47
2022-08-02T04:31:54.240Z,4.80
2022-08-02T04:33:05.965Z,5.10
2022-08-02T04:34:17.446Z,5.23
2022-08-02T04:35:29.098Z,4.93
2022-08-02T04:36:41.026Z,5.67
2022-08-02T04:38:05.691Z,4.63
2022-08-02T04:39:21.488Z,5.20
2022-08-02T04:40:33.082Z,5.53
2022-08-02T04:41:45.180Z,5.43
2022-08-02T04:42:56.838Z,5.13
2022-08-02T04:44:08.478Z,4.37
2022-08-02T04:45:20.139Z,5.27
2022-08-02T04:46:31.777Z,5.37
2022-08-02T04:47:54.359Z,5.70
2022-08-02T04:49:14.903Z,4.63
2022-08-02T04:50:26.444Z,5.03
2022-08-02T04:51:42.124Z,4.43
2022-08-02T04:52:53.601Z,4.73
2022-08-02T04:54:09.709Z,5.33
2022-08-02T04:55:22.986Z,5.10
2022-08-02T04:56:34.581Z,4.80
2022-08-02T04:57:54.873Z,5.40
2022-08-02T04:59:06.914Z,4.50
2022-08-02T05:00:18.456Z,4.90
2022-08-02T05:01:30.148Z,5.17
2022-08-02T05:02:41.642Z,5.13
2022-08-02T05:03:53.187Z,5.37
2022-08-02T05:05:10.034Z,4.93
2022-08-02T05:06:24.022Z,5.43
2022-08-02T05:07:36.115Z,4.57
2022-08-02T05:08:52.869Z,4.77
2022-08-02T05:10:05.424Z,5.33
2022-08-02T05:11:17.011Z,4.23
2022-08-02T05:12:28.701Z,4.80
2022-08-02T05:13:58.723Z,4.93
2022-08-02T05:15:12.883Z,4.63
2022-08-02T05:16:31.632Z,5.23
2022-08-02T05:17:47.449Z,4.80
2022-08-02T05:19:00.330Z,5.17
2022-08-02T05:20:15.491Z,5.17
2022-08-02T05:21:27.153Z,5.20
2022-08-02T05:22:38.722Z,6.00
2022-08-02T05:23:50.221Z,4.87
2022-08-02T05:25:01.698Z,5.03
2022-08-02T05:26:13.190Z,5.03
2022-08-02T05:27:24.714Z,4.70
2022-08-02T05:28:36.279Z,4.57
2022-08-02T05:29:51.092Z,4.63
2022-08-02T05:31:05.005Z,4.23
2022-08-02T05:32:25.193Z,4.77
2022-08-02T05:33:37.498Z,4.33
2022-08-02T05:34:48.990Z,4.37
2022-08-02T05:36:00.572Z,4.27
2022-08-02T05:37:12.122Z,3.60
2022-08-02T05:38:26.377Z,3.70
2022-08-02T05:39:37.956Z,4.03
2022-08-02T05:41:07.613Z,4.30
2022-08-02T05:42:19.131Z,4.23
2022-08-02T05:43:30.791Z,4.50
2022-08-02T05:44:42.360Z,4.50
2022-08-02T05:45:53.859Z,4.30
2022-08-02T05:47:05.471Z,4.20
2022-08-02T05:48:16.984Z,4.30
2022-08-02T05:49:28.510Z,4.43
2022-08-02T05:50:45.159Z,3.70
2022-08-02T05:52:19.565Z,3.63
2022-08-02T05:53:45.353Z,4.10
2022-08-02T05:55:07.591Z,3.50
2022-08-02T05:56:25.611Z,3.87
2022-08-02T05:57:54.830Z,3.77
2022-08-02T05:59:18.188Z,3.93
2022-08-02T06:00:33.504Z,4.10
2022-08-02T06:01:48.557Z,4.07
2022-08-02T06:03:02.934Z,4.10
2022-08-02T06:04:20.520Z,4.00
2022-08-02T06:05:33.631Z,4.50
2022-08-02T06:06:46.406Z,4.00
2022-08-02T06:07:58.757Z,3.90
2022-08-02T06:09:14.801Z,3.00
2022-08-02T06:10:27.457Z,3.80
2022-08-02T06:12:02.679Z,3.77
2022-08-02T06:13:16.891Z,4.20
2022-08-02T06:14:30.577Z,4.20
2022-08-02T06:15:42.630Z,3.73
2022-08-02T06:17:05.505Z,3.83
2022-08-02T06:18:17.621Z,3.53
2022-08-02T06:19:29.425Z,4.20
2022-08-02T06:20:41.115Z,4.27
2022-08-02T06:22:31.366Z,4.47
2022-08-02T06:23:25.946Z,4.10
2022-08-02T06:24:37.746Z,3.43
2022-08-02T06:25:51.771Z,4.40
2022-08-02T06:27:03.692Z,3.73
2022-08-02T06:28:16.466Z,4.47
2022-08-02T06:29:29.230Z,4.33
2022-08-02T06:30:41.697Z,4.33
2022-08-02T06:31:53.889Z,4.13
2022-08-02T06:33:05.434Z,4.20
2022-08-02T06:34:16.951Z,4.27
2022-08-02T06:35:39.907Z,4.10
2022-08-02T06:36:57.086Z,3.50
2022-08-02T06:38:09.993Z,3.77
2022-08-02T06:39:27.168Z,3.80
2022-08-02T06:41:02.383Z,4.30
2022-08-02T06:42:16.550Z,3.50
2022-08-02T06:43:44.753Z,3.40
2022-08-02T06:44:58.027Z,4.47
2022-08-02T06:47:08.405Z,3.57
2022-08-02T06:47:41.834Z,4.23
2022-08-02T06:48:53.472Z,4.00
2022-08-02T06:50:05.350Z,3.40
2022-08-02T06:51:17.588Z,3.57
2022-08-02T06:52:31.003Z,3.80
2022-08-02T06:53:45.677Z,3.67
2022-08-02T06:55:00.854Z,3.33
2022-08-02T06:56:12.401Z,3.37
2022-08-02T06:57:24.147Z,3.67
2022-08-02T06:58:35.734Z,4.10
2022-08-02T06:59:47.228Z,3.97
2022-08-02T07:00:58.755Z,3.60
2022-08-02T07:02:12.156Z,3.50
2022-08-02T07:03:25.734Z,3.90
2022-08-02T07:04:37.317Z,3.53
2022-08-02T07:05:49.107Z,4.17
2022-08-02T07:07:01.363Z,3.50
2022-08-02T07:08:12.870Z,4.23
2022-08-02T07:09:24.503Z,3.77
2022-08-02T07:10:36.059Z,3.37
2022-08-02T07:11:47.615Z,4.23
2022-08-02T07:12:59.974Z,4.03
2022-08-02T07:14:12.187Z,3.63
2022-08-02T07:15:23.657Z,4.00
2022-08-02T07:16:35.162Z,4.17
2022-08-02T07:17:46.640Z,3.73
2022-08-02T07:18:58.605Z,3.10
2022-08-02T07:20:10.233Z,3.53
2022-08-02T07:21:57.070Z,3.80
2022-08-02T07:22:53.253Z,3.57
2022-08-02T07:24:04.994Z,3.50
2022-08-02T07:25:16.639Z,3.30
2022-08-02T07:26:28.123Z,3.50
2022-08-02T07:27:39.614Z,3.53
2022-08-02T07:28:51.099Z,3.53
2022-08-02T07:30:02.910Z,4.43
2022-08-02T07:31:14.446Z,3.63
2022-08-02T07:32:27.210Z,3.07
2022-08-02T07:33:40.879Z,3.00
2022-08-02T07:34:55.198Z,3.63
2022-08-02T07:36:08.177Z,3.27
2022-08-02T07:37:54.267Z,3.10
2022-08-02T07:38:53.859Z,3.33
2022-08-02T07:40:12.468Z,2.90
2022-08-02T07:41:26.499Z,2.80
2022-08-02T07:42:38.075Z,2.87
2022-08-02T07:43:49.591Z,3.00
2022-08-02T07:45:01.320Z,3.00
2022-08-02T07:46:12.798Z,3.33
2022-08-02T07:47:24.333Z,3.35
2022-08-02T07:48:35.860Z,3.65
2022-08-02T07:49:47.351Z,3.83
2022-08-02T07:50:58.881Z,2.65
2022-08-02T07:52:10.627Z,3.00
2022-08-02T07:53:51.641Z,2.42
2022-08-02T07:54:54.321Z,3.10
2022-08-02T07:56:05.867Z,2.85
2022-08-02T07:57:17.379Z,2.80
2022-08-02T07:58:28.903Z,2.97
2022-08-02T07:59:40.412Z,2.60
2022-08-02T08:00:51.891Z,2.72
2022-08-02T08:02:03.522Z,2.85
2022-08-02T08:03:15.259Z,2.83
2022-08-02T08:04:27.008Z,3.30
2022-08-02T08:05:38.513Z,3.30
2022-08-02T08:06:52.773Z,2.90
2022-08-02T08:08:06.077Z,2.67
2022-08-02T08:09:17.849Z,2.88
2022-08-02T08:10:29.358Z,2.90
2022-08-02T08:11:40.865Z,3.17
2022-08-02T08:12:55.064Z,2.80
2022-08-02T08:14:07.193Z,2.67
2022-08-02T08:15:20.758Z,2.97
2022-08-02T08:16:32.623Z,2.70
2022-08-02T08:17:44.123Z,2.75
2022-08-02T08:18:56.315Z,3.05
2022-08-02T08:20:08.869Z,2.92
2022-08-02T08:21:22.517Z,2.80
2022-08-02T08:22:34.133Z,2.80
2022-08-02T08:23:45.746Z,2.63
2022-08-02T08:24:57.215Z,2.70
2022-08-02T08:26:11.649Z,2.45
2022-08-02T08:27:25.881Z,2.80
2022-08-02T08:28:37.380Z,2.42
2022-08-02T08:29:49.275Z,2.78
2022-08-02T08:31:00.774Z,2.67
2022-08-02T08:32:18.260Z,2.35
2022-08-02T08:33:30.363Z,2.70
2022-08-02T08:34:41.870Z,2.72
2022-08-02T08:35:53.731Z,2.28
2022-08-02T08:37:05.267Z,2.75
2022-08-02T08:38:16.838Z,3.50
2022-08-02T08:39:28.335Z,3.13
2022-08-02T08:40:42.145Z,2.58
2022-08-02T08:41:53.682Z,2.28
2022-08-02T08:43:05.374Z,2.60
2022-08-02T08:44:16.882Z,3.08
2022-08-02T08:45:28.694Z,2.42
2022-08-02T08:46:42.683Z,2.20
2022-08-02T08:48:00.777Z,2.50
2022-08-02T08:49:25.624Z,1.90
2022-08-02T08:50:39.847Z,2.33
2022-08-02T08:51:52.809Z,2.38
2022-08-02T08:53:05.511Z,2.03
2022-08-02T08:54:17.644Z,2.10
2022-08-02T08:55:29.592Z,2.55
2022-08-02T08:56:42.232Z,2.13
2022-08-02T08:57:54.951Z,2.83
2022-08-02T08:59:06.815Z,2.53
2022-08-02T09:00:18.428Z,1.70
2022-08-02T09:01:49.981Z,2.17
2022-08-02T09:03:05.576Z,2.20
2022-08-02T09:04:17.676Z,2.25
2022-08-02T09:05:29.556Z,2.25
2022-08-02T09:06:41.081Z,2.30
2022-08-02T09:07:53.121Z,2.30
2022-08-02T09:09:04.634Z,1.73
2022-08-02T09:10:31.400Z,2.65
2022-08-02T09:11:42.957Z,2.33
2022-08-02T09:13:38.995Z,2.33
2022-08-02T09:14:39.290Z,2.20
2022-08-02T09:15:58.091Z,1.75
2022-08-02T09:17:10.481Z,2.20
2022-08-02T09:18:29.595Z,1.92
2022-08-02T09:19:46.047Z,2.10
2022-08-02T09:20:59.176Z,1.63
2022-08-02T09:22:14.818Z,2.55
2022-08-02T09:23:33.612Z,2.00
2022-08-02T09:24:46.451Z,2.15
2022-08-02T09:26:06.994Z,2.28
2022-08-02T09:27:20.684Z,2.25
2022-08-02T09:28:33.879Z,1.95
2022-08-02T09:30:12.709Z,2.42
2022-08-02T09:31:21.646Z,2.75
2022-08-02T09:32:44.023Z,2.30
2022-08-02T09:33:57.234Z,2.15
2022-08-02T09:35:09.869Z,1.95
2022-08-02T09:36:21.879Z,2.03
2022-08-02T09:37:33.448Z,1.90
2022-08-02T09:38:53.130Z,2.03
2022-08-02T09:40:06.945Z,2.20
2022-08-02T09:41:23.994Z,1.65
2022-08-02T09:42:35.609Z,1.88
2022-08-02T09:44:03.729Z,1.80
2022-08-02T09:45:17.783Z,1.80
2022-08-02T09:46:30.473Z,1.77
2022-08-02T09:47:48.842Z,2.10
2022-08-02T09:49:01.594Z,1.90
2022-08-02T09:50:15.095Z,2.33
2022-08-02T09:51:31.128Z,2.00
2022-08-02T09:52:44.035Z,1.50
2022-08-02T09:54:08.375Z,1.83
2022-08-02T09:55:23.727Z,1.58
2022-08-02T09:56:49.739Z,2.20
2022-08-02T09:58:16.937Z,1.73
2022-08-02T09:59:29.990Z,1.52
2022-08-02T10:00:52.671Z,1.75
2022-08-02T10:02:14.812Z,1.92
2022-08-02T10:03:35.256Z,1.80
2022-08-02T10:04:52.411Z,1.80
2022-08-02T10:06:05.216Z,1.63
2022-08-02T10:07:17.195Z,2.10
2022-08-02T10:08:29.739Z,2.08
2022-08-02T10:09:47.503Z,1.45
2022-08-02T10:11:02.646Z,1.50
2022-08-02T10:12:14.523Z,1.45
2022-08-02T10:13:33.435Z,1.30
2022-08-02T10:14:45.495Z,1.40
2022-08-02T10:15:57.184Z,1.45
2022-08-02T10:17:08.813Z,1.52
2022-08-02T10:18:37.703Z,1.60
2022-08-02T10:20:02.962Z,1.50
2022-08-02T10:21:17.364Z,1.50
2022-08-02T10:22:28.988Z,1.30
2022-08-02T10:23:41.365Z,1.25
2022-08-02T10:24:55.787Z,1.25
2022-08-02T10:26:07.793Z,1.75
2022-08-02T10:27:20.592Z,1.33
2022-08-02T10:28:32.805Z,1.30
2022-08-02T10:29:53.919Z,1.10
2022-08-02T10:31:07.701Z,1.40
2022-08-02T10:32:37.721Z,1.40
2022-08-02T10:33:52.984Z,1.30
2022-08-02T10:35:19.892Z,1.45
2022-08-02T10:36:39.210Z,1.48
2022-08-02T10:37:52.738Z,1.60
2022-08-02T10:39:04.302Z,1.73
2022-08-02T10:40:27.090Z,1.63
2022-08-02T10:41:46.360Z,1.60
2022-08-02T10:43:01.384Z,1.60
2022-08-02T10:44:32.764Z,1.45
2022-08-02T10:45:50.789Z,1.40
2022-08-02T10:47:15.459Z,1.45
2022-08-02T10:48:28.550Z,1.60
2022-08-02T10:49:51.371Z,1.40
2022-08-02T10:51:03.792Z,1.80
2022-08-02T10:52:16.606Z,1.50
2022-08-02T10:53:32.027Z,1.35
2022-08-02T10:54:47.650Z,1.63
2022-08-02T10:56:01.808Z,1.58
2022-08-02T10:57:16.671Z,1.60
2022-08-02T10:58:30.503Z,1.58
2022-08-02T10:59:42.970Z,1.50
2022-08-02T11:00:55.270Z,1.38
2022-08-02T11:02:07.722Z,1.20
2022-08-02T11:03:28.269Z,1.20
2022-08-02T11:04:39.766Z,1.30
2022-08-02T11:06:01.921Z,1.40
2022-08-02T11:07:14.960Z,1.02
2022-08-02T11:08:26.542Z,1.30
2022-08-02T11:09:38.554Z,1.45
2022-08-02T11:10:52.390Z,1.48
2022-08-02T11:12:05.540Z,1.17
2022-08-02T11:13:19.633Z,1.30
2022-08-02T11:14:34.960Z,1.25
2022-08-02T11:15:48.875Z,1.40
2022-08-02T11:17:02.827Z,1.60
2022-08-02T11:18:14.738Z,1.60
2022-08-02T11:19:26.929Z,1.60
2022-08-02T11:20:39.307Z,1.50
2022-08-02T11:22:23.841Z,1.25
2022-08-02T11:23:45.130Z,1.40
2022-08-02T11:24:57.431Z,1.30
2022-08-02T11:26:27.800Z,1.80
2022-08-02T11:27:39.387Z,1.30
2022-08-02T11:28:51.305Z,1.52
2022-08-02T11:30:14.876Z,1.90
2022-08-02T11:31:26.715Z,1.50
2022-08-02T11:32:38.510Z,1.65
2022-08-02T11:33:50.888Z,1.98
2022-08-02T11:35:03.501Z,1.60
2022-08-02T11:36:15.358Z,1.48
2022-08-02T11:37:30.374Z,1.70
2022-08-02T11:38:41.959Z,1.50
2022-08-02T11:39:56.367Z,1.77
2022-08-02T11:41:09.875Z,1.48
2022-08-02T11:42:22.256Z,1.50
2022-08-02T11:43:33.825Z,1.50
2022-08-02T11:44:46.845Z,1.05
2022-08-02T11:46:02.055Z,1.40
2022-08-02T11:47:14.218Z,1.25
2022-08-02T11:48:32.883Z,1.10
2022-08-02T11:49:44.854Z,1.25
2022-08-02T11:51:03.470Z,1.42
2022-08-02T11:52:15.411Z,1.20
2022-08-02T11:53:27.062Z,1.33
2022-08-02T11:54:42.666Z,1.40
2022-08-02T11:55:56.946Z,1.30
2022-08-02T11:57:20.502Z,1.17
2022-08-02T11:58:32.252Z,1.60
2022-08-02T11:59:44.574Z,1.30
2022-08-02T12:00:56.180Z,1.38
2022-08-02T12:02:08.940Z,1.23
2022-08-02T12:03:20.689Z,1.95
2022-08-02T12:04:32.235Z,1.45
2022-08-02T12:06:05.327Z,1.60
2022-08-02T12:07:18.255Z,1.45
2022-08-02T12:08:54.531Z,2.17
2022-08-02T12:10:18.660Z,1.70
2022-08-02T12:11:39.106Z,1.40
2022-08-02T12:12:54.295Z,1.30
2022-08-02T12:14:06.171Z,1.33
2022-08-02T12:15:32.799Z,1.55
2022-08-02T12:17:02.948Z,1.45
2022-08-02T12:18:33.880Z,1.48
2022-08-02T12:19:45.782Z,1.70
2022-08-02T12:20:57.687Z,1.20
2022-08-02T12:22:09.284Z,1.10
2022-08-02T12:23:20.986Z,1.35
2022-08-02T12:24:32.582Z,1.52
2022-08-02T12:25:44.102Z,1.50
2022-08-02T12:26:56.977Z,1.33
2022-08-02T12:28:20.509Z,1.50
2022-08-02T12:29:58.820Z,1.45
2022-08-02T12:31:11.319Z,1.60
2022-08-02T12:32:25.688Z,1.13
2022-08-02T12:33:49.122Z,1.10
2022-08-02T12:35:09.144Z,1.40
2022-08-02T12:36:26.567Z,1.50
2022-08-02T12:37:40.173Z,1.10
2022-08-02T12:39:01.583Z,1.63
2022-08-02T12:40:32.049Z,1.40
2022-08-02T12:41:54.288Z,1.40
2022-08-02T12:43:08.092Z,1.33
2022-08-02T12:44:19.840Z,1.60
2022-08-02T12:45:40.670Z,1.58
2022-08-02T12:47:04.605Z,1.25
2022-08-02T12:48:17.694Z,1.25
2022-08-02T12:49:29.239Z,1.50
2022-08-02T12:50:44.400Z,1.13
2022-08-02T12:52:00.093Z,1.67
2022-08-02T12:53:17.215Z,1.30
2022-08-02T12:54:38.634Z,1.40
2022-08-02T12:56:00.972Z,1.45
2022-08-02T12:57:18.882Z,1.08
2022-08-02T12:58:31.512Z,1.40
2022-08-02T12:59:45.178Z,1.75
2022-08-02T13:01:00.562Z,1.30
2022-08-02T13:02:13.670Z,1.30
2022-08-02T13:04:09.270Z,1.35
2022-08-02T13:04:59.531Z,1.17
2022-08-02T13:06:41.104Z,1.38
2022-08-02T13:07:42.778Z,1.60
2022-08-02T13:08:58.691Z,1.50
2022-08-02T13:10:10.221Z,1.50
2022-08-02T13:11:22.714Z,1.55
2022-08-02T13:12:34.602Z,1.02
2022-08-02T13:13:46.269Z,1.30
2022-08-02T13:14:57.867Z,1.27
2022-08-02T13:16:10.148Z,1.33
2022-08-02T13:17:22.135Z,1.45
2022-08-02T13:18:33.678Z,1.15
2022-08-02T13:19:45.523Z,1.42
2022-08-02T13:21:04.686Z,1.40
2022-08-02T13:22:16.786Z,1.25
2022-08-02T13:23:53.958Z,1.20
2022-08-02T13:25:01.990Z,1.33
2022-08-02T13:26:13.556Z,1.67
2022-08-02T13:27:26.793Z,1.80
2022-08-02T13:28:42.094Z,1.33
2022-08-02T13:29:54.514Z,1.20
2022-08-02T13:31:26.961Z,1.75
2022-08-02T13:32:37.533Z,1.60
2022-08-02T13:33:49.485Z,1.35
2022-08-02T13:35:01.048Z,1.50
2022-08-02T13:36:12.640Z,1.17
2022-08-02T13:37:24.330Z,1.55
2022-08-02T13:38:36.096Z,1.60
2022-08-02T13:40:11.694Z,1.30
2022-08-02T13:41:19.854Z,1.40
2022-08-02T13:42:31.517Z,1.45
2022-08-02T13:43:53.522Z,1.63
2022-08-02T13:45:12.796Z,1.48
2022-08-02T13:46:28.885Z,1.40
2022-08-02T13:47:57.398Z,1.70
2022-08-02T13:49:19.838Z,1.70
2022-08-02T13:50:32.288Z,1.75
2022-08-02T13:51:43.778Z,1.70
2022-08-02T13:52:55.433Z,1.60
2022-08-02T13:54:08.893Z,1.60
2022-08-02T13:55:20.507Z,1.30
2022-08-02T13:56:35.454Z,1.30
2022-08-02T13:57:53.545Z,1.52
2022-08-02T13:59:55.322Z,1.60
2022-08-02T14:00:37.578Z,1.40
2022-08-02T14:01:49.251Z,1.38
2022-08-02T14:03:00.893Z,1.80
2022-08-02T14:04:12.535Z,1.75
2022-08-02T14:05:39.313Z,2.13
2022-08-02T14:07:00.544Z,1.80
2022-08-02T14:08:16.229Z,1.88
2022-08-02T14:09:28.266Z,1.52
2022-08-02T14:10:40.046Z,1.70
2022-08-02T14:11:51.666Z,1.92
2022-08-02T14:13:03.208Z,1.63
2022-08-02T14:14:16.858Z,1.70
2022-08-02T14:15:30.391Z,1.67
2022-08-02T14:16:42.201Z,1.85
2022-08-02T14:17:56.109Z,1.83
2022-08-02T14:19:16.119Z,1.55
2022-08-02T14:20:30.245Z,1.55
2022-08-02T14:21:46.970Z,1.42
2022-08-02T14:22:59.337Z,1.70
2022-08-02T14:24:11.181Z,1.38
2022-08-02T14:25:23.047Z,1.88
2022-08-02T14:26:34.623Z,1.60
2022-08-02T14:27:46.314Z,1.65
2022-08-02T14:28:57.862Z,1.98
2022-08-02T14:30:09.538Z,1.70
2022-08-02T14:31:21.088Z,1.70
2022-08-02T14:32:32.809Z,1.67
2022-08-02T14:33:44.321Z,1.80
2022-08-02T14:34:55.968Z,1.42
2022-08-02T14:36:07.778Z,1.33
2022-08-02T14:37:19.453Z,1.70
2022-08-02T14:38:32.762Z,1.70
2022-08-02T14:40:00.077Z,1.60
2022-08-02T14:41:12.734Z,1.63
2022-08-02T14:42:24.262Z,1.50
2022-08-02T14:43:54.393Z,1.58
2022-08-02T14:45:06.381Z,1.20
2022-08-02T14:46:17.949Z,1.70
2022-08-02T14:47:29.542Z,1.20
2022-08-02T14:48:41.272Z,1.27
2022-08-02T14:49:52.880Z,1.38
2022-08-02T14:51:04.476Z,1.50
2022-08-02T14:52:16.137Z,1.05
2022-08-02T14:53:27.701Z,1.58
2022-08-02T14:54:49.828Z,1.20
2022-08-02T14:56:01.312Z,2.00
2022-08-02T14:57:12.972Z,1.70
2022-08-02T14:58:24.681Z,1.50
2022-08-02T14:59:36.256Z,1.63
2022-08-02T15:00:53.911Z,2.08
2022-08-02T15:02:05.510Z,1.70
2022-08-02T15:03:20.742Z,1.70
2022-08-02T15:04:42.894Z,1.40
2022-08-02T15:05:55.666Z,1.75
2022-08-02T15:07:07.165Z,1.10
2022-08-02T15:08:18.763Z,1.55
2022-08-02T15:09:30.394Z,1.33
2022-08-02T15:10:42.054Z,1.40
2022-08-02T15:11:54.776Z,1.42
2022-08-02T15:13:16.983Z,1.52
2022-08-02T15:14:28.454Z,1.75
2022-08-02T15:15:43.039Z,1.92
2022-08-02T15:16:58.051Z,1.88
2022-08-02T15:18:10.142Z,1.70
2022-08-02T15:19:21.678Z,2.03
2022-08-02T15:20:33.257Z,1.98
2022-08-02T15:21:54.412Z,2.00
2022-08-02T15:23:06.396Z,1.60
2022-08-02T15:24:20.494Z,2.20
2022-08-02T15:25:32.011Z,2.25
2022-08-02T15:26:43.530Z,3.70
2022-08-02T15:27:55.019Z,4.40
2022-08-02T15:29:06.550Z,3.60
2022-08-02T15:30:19.307Z,3.25
2022-08-02T15:31:32.963Z,2.70
2022-08-02T15:32:53.136Z,2.25
2022-08-02T15:34:05.398Z,1.95
2022-08-02T15:35:16.921Z,1.67
2022-08-02T15:36:28.438Z,1.92
2022-08-02T15:37:41.593Z,1.50
2022-08-02T15:38:53.238Z,1.40
2022-08-02T15:40:07.474Z,1.50
2022-08-02T15:41:19.057Z,1.67
2022-08-02T15:42:31.070Z,1.52
2022-08-02T15:44:01.197Z,1.48
2022-08-02T15:45:15.821Z,1.52
2022-08-02T15:46:30.780Z,1.35
2022-08-02T15:47:50.407Z,1.52
2022-08-02T15:49:02.108Z,2.00
2022-08-02T15:50:13.699Z,1.30
2022-08-02T15:51:26.331Z,0.85
2022-08-02T15:52:37.958Z,1.02
2022-08-02T15:53:49.617Z,0.93
2022-08-02T15:55:06.690Z,1.17
2022-08-02T15:56:21.959Z,0.63
2022-08-02T15:57:36.274Z,0.68
2022-08-02T15:58:48.037Z,0.90
2022-08-02T16:00:05.461Z,1.02
2022-08-02T16:01:17.119Z,1.05
2022-08-02T16:02:29.311Z,0.70
2022-08-02T16:03:40.862Z,0.93
2022-08-02T16:04:52.414Z,0.70
2022-08-02T16:06:03.945Z,0.70
2022-08-02T16:07:15.529Z,0.85
2022-08-02T16:08:27.333Z,1.00
2022-08-02T16:09:38.825Z,0.90
2022-08-02T16:10:50.348Z,0.70
2022-08-02T16:12:01.909Z,0.80
2022-08-02T16:13:31.646Z,1.17
2022-08-02T16:14:43.215Z,1.00
2022-08-02T16:15:54.720Z,0.60
2022-08-02T16:17:06.218Z,1.05
2022-08-02T16:18:17.747Z,1.05
2022-08-02T16:19:46.899Z,1.52
2022-08-02T16:20:59.594Z,1.25
2022-08-02T16:22:11.677Z,1.35
2022-08-02T16:24:02.122Z,1.20
2022-08-02T16:24:54.966Z,1.15
2022-08-02T16:26:06.436Z,1.10
2022-08-02T16:27:17.954Z,1.25
2022-08-02T16:28:29.526Z,1.30
2022-08-02T16:29:41.094Z,1.17
2022-08-02T16:31:09.928Z,1.20
2022-08-02T16:32:22.256Z,1.08
2022-08-02T16:33:33.744Z,1.10
2022-08-02T16:35:08.599Z,1.00
2022-08-02T16:36:19.282Z,0.85
2022-08-02T16:37:52.048Z,1.10
2022-08-02T16:39:02.892Z,1.00